Stove Pipe Wells, California
Current Conditions -  °F | °C
As of 1:56 AM on Thursday 29 Jan 2015 (Local Time) from KNID Reporting Station
Clear Clear  
Wind Chill: 51°   Ceiling: Unl
Heat Index: 51°   Visibility: 10mi
Dew Point: 48°   Wind: 6mph
Humidity: 89%   Direction: 200°SSW
Pressure: 30.17"   Gusts: NA
Location:  36.3785°N, 117.161°W
Report Text: KNID 290956Z AUTO 20005KT 10SM CLR 11/09 A3017 RMK AO2 SLP214 T01060089 $
Loading
Personal Weather Stations






























Interactive Weather Map New forecast layout! Learn more

10-Day Weather Forecast

Advertisements
Track Severe Weather on mobile